Airports

 

 

Airport Name Latest METAR Visual Conditions
Kansas City International Airport (MCI) KMCI 132153Z 24008KT 10SM CLR 17/M01 A2995 RMK AO2 SLP141 T01671006
VFR
St. Louis-Lambert International Airport (STL) KSTL 132151Z 26009KT 10SM CLR 21/03 A2991 RMK AO2 SLP125 T02060028
VFR
Tulsa International Airport (TUL) KTUL 132153Z 17009KT 10SM FEW002 23/06 A2993 RMK AO2 SLP133 FU FEW002 NE OF APT T02280056
VFR
Wichita Dwight D. Eisenhower National Airport (ICT) KICT 132153Z 00000KT 10SM CLR 22/03 A2994 RMK AO2 SLP135 T02220033
VFR
Springfield-Branson National Airport (SGF) KSGF 132152Z 25010KT 10SM CLR 21/03 A2996 RMK AO2 SLP142 T02110028
VFR
Abraham Lincoln Capital Airport (SPI) KSPI 132152Z 25011G25KT 10SM CLR 18/M01 A2988 RMK AO2 SLP119 T01781011
VFR